createdAt,value
2018-05-06T00:01:48.200Z,78.32
2018-05-06T00:04:17.231Z,77.86
2018-05-06T00:06:45.479Z,77.46
2018-05-06T00:09:14.507Z,76.77
2018-05-06T00:11:43.509Z,76.16
2018-05-06T00:14:12.551Z,77.13
2018-05-06T00:16:40.780Z,76.64
2018-05-06T00:19:09.051Z,76.08
2018-05-06T00:21:38.055Z,77.02
2018-05-06T00:24:06.315Z,77.80
2018-05-06T00:26:34.592Z,78.50
2018-05-06T00:29:03.595Z,79.43
2018-05-06T00:31:31.848Z,79.90
2018-05-06T00:34:00.098Z,80.41
2018-05-06T00:36:28.335Z,80.65
2018-05-06T00:38:57.347Z,80.87
2018-05-06T00:41:26.347Z,81.26
2018-05-06T00:43:54.603Z,81.82
2018-05-06T00:46:22.848Z,81.50
2018-05-06T00:48:51.863Z,81.47
2018-05-06T00:51:20.108Z,81.33
2018-05-06T00:53:48.368Z,81.45
2018-05-06T00:56:16.615Z,81.94
2018-05-06T00:58:44.858Z,81.37
2018-05-06T01:01:13.110Z,81.49
2018-05-06T01:03:41.395Z,81.50
2018-05-06T01:06:09.657Z,81.39
2018-05-06T01:08:38.662Z,81.21
2018-05-06T01:11:07.691Z,81.20
2018-05-06T01:13:35.928Z,81.16
2018-05-06T01:16:04.186Z,81.35
2018-05-06T01:18:32.415Z,82.47
2018-05-06T01:21:00.662Z,82.54
2018-05-06T01:23:28.900Z,82.01
2018-05-06T01:25:57.155Z,82.33
2018-05-06T01:28:25.392Z,83.01
2018-05-06T01:30:54.418Z,83.57
2018-05-06T01:33:22.651Z,83.86
2018-05-06T01:35:50.943Z,83.92
2018-05-06T01:38:19.195Z,84.00
2018-05-06T01:40:47.455Z,84.14
2018-05-06T01:43:16.460Z,84.31
2018-05-06T01:45:45.479Z,83.87
2018-05-06T01:48:13.723Z,84.25
2018-05-06T01:50:41.983Z,84.50
2018-05-06T01:53:10.223Z,83.44
2018-05-06T01:55:39.239Z,84.28
2018-05-06T01:58:08.238Z,83.97
2018-05-06T02:00:37.285Z,84.06
2018-05-06T02:03:05.518Z,84.28
2018-05-06T02:05:33.756Z,84.59
2018-05-06T02:08:02.013Z,84.65
2018-05-06T02:10:31.012Z,84.98
2018-05-06T02:13:00.033Z,84.83
2018-05-06T02:15:29.034Z,84.25
2018-05-06T02:17:58.057Z,84.61
2018-05-06T02:20:26.300Z,85.42
2018-05-06T02:22:54.542Z,85.50
2018-05-06T02:25:22.792Z,86.11
2018-05-06T02:27:51.047Z,85.87
2018-05-06T02:30:20.063Z,85.35
2018-05-06T02:32:48.321Z,85.47
2018-05-06T02:35:16.567Z,86.33
2018-05-06T02:37:44.810Z,85.95
2018-05-06T02:40:13.061Z,86.40
2018-05-06T02:42:42.096Z,85.50
2018-05-06T02:45:10.329Z,85.59
2018-05-06T02:47:38.575Z,85.27
2018-05-06T02:50:06.812Z,85.45
2018-05-06T02:52:35.096Z,85.54
2018-05-06T02:55:03.333Z,86.19
2018-05-06T02:57:31.587Z,86.37
2018-05-06T03:00:00.599Z,86.24
2018-05-06T03:02:29.616Z,86.47
2018-05-06T03:04:58.619Z,86.40
2018-05-06T03:07:27.646Z,86.48
2018-05-06T03:09:55.887Z,86.99
2018-05-06T03:12:24.129Z,86.97
2018-05-06T03:14:52.358Z,87.29
2018-05-06T03:17:20.635Z,86.66
2018-05-06T03:19:48.875Z,87.37
2018-05-06T03:22:17.190Z,87.36
2018-05-06T03:24:45.423Z,87.61
2018-05-06T03:27:13.687Z,87.86
2018-05-06T03:29:41.942Z,87.77
2018-05-06T03:32:10.188Z,87.84
2018-05-06T03:34:38.471Z,87.43
2018-05-06T03:37:06.702Z,87.60
2018-05-06T03:39:34.946Z,87.78
2018-05-06T03:42:03.194Z,87.67
2018-05-06T03:44:31.451Z,87.71
2018-05-06T03:47:00.450Z,87.71
2018-05-06T03:49:29.462Z,86.48
2018-05-06T03:51:58.463Z,86.38
2018-05-06T03:54:27.478Z,86.17
2018-05-06T03:57:14.450Z,85.93
2018-05-06T04:00:00.618Z,85.16
2018-05-06T04:02:46.346Z,85.16
2018-05-06T04:05:14.579Z,84.89
2018-05-06T04:07:42.823Z,85.01
2018-05-06T04:10:11.895Z,85.08
2018-05-06T04:12:40.894Z,85.90
2018-05-06T04:15:09.908Z,85.57
2018-05-06T04:17:38.915Z,85.81
2018-05-06T04:20:07.941Z,85.66
2018-05-06T04:22:36.175Z,86.19
2018-05-06T04:25:05.199Z,85.98
2018-05-06T04:27:33.433Z,84.95
2018-05-06T04:30:01.698Z,85.48
2018-05-06T04:32:30.692Z,85.26
2018-05-06T04:34:58.940Z,84.61
2018-05-06T04:37:27.177Z,83.59
2018-05-06T04:39:56.243Z,82.78
2018-05-06T04:42:24.485Z,82.89
2018-05-06T04:44:53.500Z,83.09
2018-05-06T04:47:21.736Z,82.23
2018-05-06T04:49:51.492Z,82.07
2018-05-06T04:52:20.500Z,81.82
2018-05-06T04:54:49.528Z,81.85
2018-05-06T04:57:17.782Z,81.75
2018-05-06T04:59:46.025Z,80.64
2018-05-06T05:02:14.266Z,80.61
2018-05-06T05:04:43.314Z,79.61
2018-05-06T05:07:11.553Z,79.60
2018-05-06T05:09:39.824Z,79.06
2018-05-06T05:12:08.038Z,78.72
2018-05-06T05:14:37.052Z,78.33
2018-05-06T05:17:06.061Z,75.63
2018-05-06T05:19:35.100Z,75.48
2018-05-06T05:22:03.328Z,73.78
2018-05-06T05:24:31.582Z,70.86
2018-05-06T05:26:59.811Z,68.52
2018-05-06T05:29:28.069Z,66.85
2018-05-06T05:31:56.306Z,66.46
2018-05-06T05:34:25.370Z,66.68
2018-05-06T05:36:53.555Z,64.04
2018-05-06T05:39:21.811Z,62.60
2018-05-06T05:41:50.056Z,62.38
2018-05-06T05:44:18.349Z,59.85
2018-05-06T05:46:46.579Z,60.92
2018-05-06T05:49:14.826Z,61.41
2018-05-06T05:51:43.070Z,59.36
2018-05-06T05:54:11.311Z,58.04
2018-05-06T05:56:40.339Z,59.74
2018-05-06T05:59:08.592Z,58.75
2018-05-06T06:01:36.911Z,57.08
2018-05-06T06:04:05.079Z,56.15
2018-05-06T06:06:34.115Z,56.13
2018-05-06T06:09:02.359Z,55.52
2018-05-06T06:11:30.615Z,56.54
2018-05-06T06:14:00.503Z,54.00
2018-05-06T06:16:29.506Z,55.67
2018-05-06T06:18:58.517Z,55.99
2018-05-06T06:21:27.538Z,55.98
2018-05-06T06:23:55.757Z,54.57
2018-05-06T06:26:24.013Z,51.76
2018-05-06T06:28:53.009Z,53.47
2018-05-06T06:31:22.037Z,51.09
2018-05-06T06:33:50.290Z,51.31
2018-05-06T06:36:18.555Z,51.09
2018-05-06T06:38:46.956Z,51.40
2018-05-06T06:41:15.218Z,49.95
2018-05-06T06:43:43.471Z,49.78
2018-05-06T06:46:12.480Z,49.99
2018-05-06T06:48:40.725Z,49.76
2018-05-06T06:51:08.978Z,50.32
2018-05-06T06:53:37.211Z,51.10
2018-05-06T06:56:05.472Z,49.64
2018-05-06T06:58:33.707Z,49.74
2018-05-06T07:01:02.743Z,48.32
2018-05-06T07:03:30.995Z,49.93
2018-05-06T07:06:00.021Z,49.47
2018-05-06T07:08:29.023Z,48.99
2018-05-06T07:10:58.047Z,50.22
2018-05-06T07:13:26.315Z,50.08
2018-05-06T07:15:55.328Z,49.79
2018-05-06T07:18:23.593Z,48.81
2018-05-06T07:20:51.820Z,49.71
2018-05-06T07:23:20.091Z,48.40
2018-05-06T07:25:48.365Z,48.30
2018-05-06T07:28:16.611Z,46.81
2018-05-06T07:30:44.866Z,47.75
2018-05-06T07:33:13.122Z,48.16
2018-05-06T07:35:42.080Z,47.05
2018-05-06T07:38:10.328Z,47.19
2018-05-06T07:40:39.460Z,46.61
2018-05-06T07:43:07.698Z,45.66
2018-05-06T07:45:35.940Z,46.36
2018-05-06T07:48:04.187Z,46.33
2018-05-06T07:50:32.411Z,46.19
2018-05-06T07:53:00.668Z,46.18
2018-05-06T07:55:28.901Z,45.35
2018-05-06T07:57:57.160Z,43.97
2018-05-06T08:00:26.215Z,43.64
2018-05-06T08:02:55.179Z,45.02
2018-05-06T08:05:24.194Z,43.78
2018-05-06T08:07:52.463Z,42.77
2018-05-06T08:10:20.699Z,43.44
2018-05-06T08:12:48.964Z,43.44
2018-05-06T08:15:17.976Z,43.29
2018-05-06T08:17:46.231Z,43.16
2018-05-06T08:20:15.220Z,43.31
2018-05-06T08:22:43.475Z,43.49
2018-05-06T08:25:11.724Z,43.62
2018-05-06T08:27:40.767Z,44.02
2018-05-06T08:30:09.006Z,42.43
2018-05-06T08:32:37.308Z,42.21
2018-05-06T08:35:06.330Z,41.79
2018-05-06T08:37:35.354Z,42.27
2018-05-06T08:40:04.431Z,41.85
2018-05-06T08:42:33.435Z,41.89
2018-05-06T08:45:02.460Z,42.66
2018-05-06T08:47:30.756Z,40.53
2018-05-06T08:49:59.044Z,41.48
2018-05-06T08:52:27.274Z,42.30
2018-05-06T08:54:55.543Z,43.27
2018-05-06T08:57:23.779Z,42.62
2018-05-06T08:59:52.204Z,41.60
2018-05-06T09:02:20.526Z,43.14
2018-05-06T09:04:48.814Z,42.07
2018-05-06T09:07:17.054Z,42.23
2018-05-06T09:09:46.100Z,41.61
2018-05-06T09:12:14.344Z,42.23
2018-05-06T09:14:42.590Z,41.91
2018-05-06T09:17:10.823Z,41.23
2018-05-06T09:19:39.846Z,41.84
2018-05-06T09:22:09.307Z,40.60
2018-05-06T09:24:37.556Z,39.77
2018-05-06T09:27:05.798Z,40.93
2018-05-06T09:29:34.055Z,40.55
2018-05-06T09:32:02.320Z,39.97
2018-05-06T09:34:30.571Z,40.29
2018-05-06T09:36:58.813Z,39.57
2018-05-06T09:39:27.064Z,39.26
2018-05-06T09:41:56.063Z,40.15
2018-05-06T09:44:24.330Z,39.68
2018-05-06T09:46:53.383Z,39.26
2018-05-06T09:49:22.410Z,39.73
2018-05-06T09:51:50.655Z,40.38
2018-05-06T09:54:18.907Z,39.19
2018-05-06T09:56:47.274Z,39.61
2018-05-06T09:59:15.543Z,38.53
2018-05-06T10:01:44.562Z,38.88
2018-05-06T10:04:12.802Z,37.94
2018-05-06T10:06:41.059Z,38.48
2018-05-06T10:09:09.298Z,37.68
2018-05-06T10:11:38.322Z,37.54
2018-05-06T10:14:06.572Z,38.90
2018-05-06T10:16:34.947Z,38.09
2018-05-06T10:19:03.207Z,37.50
2018-05-06T10:21:31.480Z,37.35
2018-05-06T10:24:00.497Z,38.63
2018-05-06T10:26:28.743Z,37.15
2018-05-06T10:28:56.986Z,35.85
2018-05-06T10:31:25.230Z,36.51
2018-05-06T10:33:53.457Z,37.30
2018-05-06T10:36:21.726Z,36.48
2018-05-06T10:38:50.742Z,35.87
2018-05-06T10:41:20.693Z,35.95
2018-05-06T10:43:48.934Z,37.30
2018-05-06T10:46:17.961Z,36.32
2018-05-06T10:48:46.194Z,36.45
2018-05-06T10:51:14.451Z,36.20
2018-05-06T10:53:42.688Z,36.39
2018-05-06T10:56:10.952Z,35.34
2018-05-06T10:58:39.199Z,35.33
2018-05-06T11:01:08.211Z,35.57
2018-05-06T11:03:36.460Z,34.41
2018-05-06T11:06:04.710Z,35.32
2018-05-06T11:08:32.969Z,34.98
2018-05-06T11:11:02.066Z,34.66
2018-05-06T11:13:31.088Z,34.31
2018-05-06T11:16:00.098Z,34.11
2018-05-06T11:18:29.144Z,34.28
2018-05-06T11:20:57.656Z,34.16
2018-05-06T11:23:26.333Z,34.75
2018-05-06T11:25:55.865Z,33.96
2018-05-06T11:28:25.369Z,33.56
2018-05-06T11:30:53.942Z,33.59
2018-05-06T11:33:22.651Z,33.33
2018-05-06T11:35:51.236Z,33.76
2018-05-06T11:38:20.427Z,33.95
2018-05-06T11:40:50.569Z,32.02
2018-05-06T11:43:20.136Z,33.28
2018-05-06T11:45:49.080Z,33.40
2018-05-06T11:48:18.716Z,32.81
2018-05-06T11:50:47.722Z,33.53
2018-05-06T11:53:15.971Z,33.88
2018-05-06T11:55:44.244Z,33.59
2018-05-06T11:58:12.486Z,32.53
2018-05-06T12:00:41.500Z,33.20
2018-05-06T12:03:09.743Z,33.21
2018-05-06T12:05:38.065Z,33.80
2018-05-06T12:08:07.103Z,33.51
2018-05-06T12:10:35.377Z,32.87
2018-05-06T12:13:04.416Z,32.77
2018-05-06T12:15:32.662Z,32.17
2018-05-06T12:18:01.680Z,33.13
2018-05-06T12:20:29.927Z,32.98
2018-05-06T12:22:58.179Z,32.50
2018-05-06T12:25:26.418Z,32.14
2018-05-06T12:27:55.444Z,32.61
2018-05-06T12:30:24.457Z,32.37
2018-05-06T12:32:52.759Z,31.99
2018-05-06T12:35:21.022Z,32.22
2018-05-06T12:37:50.109Z,31.67
2018-05-06T12:40:19.914Z,32.14
2018-05-06T12:42:48.271Z,31.33
2018-05-06T12:45:16.550Z,32.03
2018-05-06T12:47:44.803Z,30.88
2018-05-06T12:50:13.079Z,31.44
2018-05-06T12:52:41.319Z,31.91
2018-05-06T12:55:09.751Z,31.79
2018-05-06T12:57:39.311Z,32.15
2018-05-06T13:00:08.405Z,31.55
2018-05-06T13:02:36.826Z,31.96
2018-05-06T13:05:05.939Z,31.96
2018-05-06T13:07:34.829Z,31.46
2018-05-06T13:10:03.164Z,31.32
2018-05-06T13:12:31.519Z,30.96
2018-05-06T13:14:59.834Z,31.35
2018-05-06T13:17:28.102Z,31.51
2018-05-06T13:19:57.231Z,31.20
2018-05-06T13:22:25.491Z,31.31
2018-05-06T13:24:53.834Z,31.28
2018-05-06T13:27:22.913Z,30.63
2018-05-06T13:29:51.199Z,30.68
2018-05-06T13:32:19.698Z,30.66
2018-05-06T13:34:47.973Z,31.26
2018-05-06T13:37:16.252Z,30.67
2018-05-06T13:39:45.275Z,30.46
2018-05-06T13:42:14.306Z,30.74
2018-05-06T13:44:42.651Z,30.87
2018-05-06T13:47:11.694Z,30.54
2018-05-06T13:49:40.020Z,31.03
2018-05-06T13:52:09.046Z,30.92
2018-05-06T13:54:37.307Z,30.47
2018-05-06T13:57:05.550Z,31.48
2018-05-06T13:59:33.811Z,31.41
2018-05-06T14:02:02.263Z,31.03
2018-05-06T14:04:30.498Z,30.90
2018-05-06T14:06:58.775Z,31.16
2018-05-06T14:09:27.021Z,30.61
2018-05-06T14:11:55.351Z,30.97
2018-05-06T14:14:23.677Z,30.65
2018-05-06T14:16:51.992Z,30.38
2018-05-06T14:19:20.348Z,30.72
2018-05-06T14:21:48.774Z,30.34
2018-05-06T14:24:17.364Z,30.11
2018-05-06T14:26:45.619Z,29.80
2018-05-06T14:29:14.652Z,28.59
2018-05-06T14:31:43.015Z,28.02
2018-05-06T14:34:11.276Z,28.60
2018-05-06T14:36:39.788Z,28.37
2018-05-06T14:39:08.148Z,28.34
2018-05-06T14:41:36.504Z,28.25
2018-05-06T14:44:05.512Z,28.64
2018-05-06T14:46:51.520Z,27.83
2018-05-06T14:49:19.792Z,28.24
2018-05-06T14:51:48.832Z,28.61
2018-05-06T14:54:17.099Z,28.72
2018-05-06T14:56:45.355Z,28.26
2018-05-06T14:59:13.760Z,28.21
2018-05-06T15:01:42.792Z,28.33
2018-05-06T15:04:11.116Z,28.38
2018-05-06T15:06:39.399Z,28.21
2018-05-06T15:09:07.772Z,27.71
2018-05-06T15:11:36.059Z,27.23
2018-05-06T15:14:04.328Z,27.24
2018-05-06T15:16:33.360Z,27.31
2018-05-06T15:19:01.662Z,27.18
2018-05-06T15:21:29.914Z,26.98
2018-05-06T15:23:58.960Z,25.97
2018-05-06T15:26:27.220Z,27.28
2018-05-06T15:28:56.995Z,26.84
2018-05-06T15:31:25.239Z,26.93
2018-05-06T15:33:53.503Z,26.77
2018-05-06T15:36:22.507Z,26.34
2018-05-06T15:38:51.559Z,26.35
2018-05-06T15:41:20.784Z,26.00
2018-05-06T15:43:49.968Z,26.36
2018-05-06T15:46:18.220Z,25.95
2018-05-06T15:48:47.257Z,25.92
2018-05-06T15:51:15.675Z,26.53
2018-05-06T15:53:43.926Z,26.43
2018-05-06T15:56:12.182Z,26.56
2018-05-06T15:58:40.506Z,25.96
2018-05-06T16:01:09.534Z,26.31
2018-05-06T16:03:55.687Z,26.23
2018-05-06T16:06:24.742Z,26.17
2018-05-06T16:08:53.019Z,26.37
2018-05-06T16:11:22.216Z,26.60
2018-05-06T16:13:51.296Z,25.82
2018-05-06T16:16:19.594Z,26.00
2018-05-06T16:18:48.162Z,25.61
2018-05-06T16:21:16.487Z,25.97
2018-05-06T16:23:44.747Z,26.50
2018-05-06T16:26:12.991Z,25.38
2018-05-06T16:28:42.038Z,26.12
2018-05-06T16:31:10.362Z,25.70
2018-05-06T16:33:39.428Z,26.20
2018-05-06T16:36:07.752Z,26.25
2018-05-06T16:38:36.024Z,26.53
2018-05-06T16:41:04.270Z,25.43
2018-05-06T16:43:33.286Z,25.72
2018-05-06T16:46:01.543Z,26.11
2018-05-06T16:48:29.815Z,25.85
2018-05-06T16:50:58.094Z,25.62
2018-05-06T16:53:26.451Z,25.82
2018-05-06T16:55:54.742Z,24.73
2018-05-06T16:58:23.023Z,23.86
2018-05-06T17:00:52.097Z,23.18
2018-05-06T17:03:20.357Z,22.74
2018-05-06T17:05:48.688Z,22.31
2018-05-06T17:08:17.754Z,22.11
2018-05-06T17:10:46.042Z,21.54
2018-05-06T17:13:14.297Z,21.30
2018-05-06T17:15:42.571Z,21.41
2018-05-06T17:18:11.599Z,21.30
2018-05-06T17:20:39.867Z,20.71
2018-05-06T17:23:09.762Z,20.96
2018-05-06T17:25:38.338Z,21.71
2018-05-06T17:28:07.404Z,22.03
2018-05-06T17:32:59.796Z,21.77
2018-05-06T17:35:28.059Z,22.92
2018-05-06T17:37:57.068Z,24.00
2018-05-06T17:40:26.599Z,24.83
2018-05-06T17:42:55.710Z,25.21
2018-05-06T17:45:24.753Z,25.70
2018-05-06T17:47:53.023Z,25.96
2018-05-06T17:50:21.314Z,26.05
2018-05-06T17:52:49.587Z,26.16
2018-05-06T17:55:18.212Z,25.84
2018-05-06T17:57:46.498Z,26.35
2018-05-06T18:00:14.759Z,26.73
2018-05-06T18:02:43.815Z,26.50
2018-05-06T18:05:12.087Z,26.55
2018-05-06T18:07:40.443Z,26.35
2018-05-06T18:10:09.501Z,26.66
2018-05-06T18:12:37.758Z,26.93
2018-05-06T18:15:06.004Z,27.30
2018-05-06T18:17:34.330Z,27.38
2018-05-06T18:20:03.331Z,27.63
2018-05-06T18:22:32.459Z,27.69
2018-05-06T18:25:01.441Z,27.86
2018-05-06T18:27:30.483Z,28.08
2018-05-06T18:29:58.746Z,28.54
2018-05-06T18:32:27.023Z,28.04
2018-05-06T18:34:56.035Z,28.37
2018-05-06T18:37:25.089Z,28.38
2018-05-06T18:39:53.505Z,28.74
2018-05-06T18:42:21.789Z,29.15
2018-05-06T18:44:50.161Z,29.16
2018-05-06T18:47:19.302Z,29.09
2018-05-06T18:49:47.571Z,29.72
2018-05-06T18:52:15.862Z,29.67
2018-05-06T18:54:44.115Z,29.72
2018-05-06T18:57:12.449Z,30.06
2018-05-06T18:59:40.715Z,30.35
2018-05-06T19:02:09.015Z,30.74
2018-05-06T19:04:41.373Z,31.13
2018-05-06T19:07:09.705Z,31.99
2018-05-06T19:09:38.067Z,32.66
2018-05-06T19:12:06.508Z,33.99
2018-05-06T19:14:34.751Z,35.20
2018-05-06T19:17:03.112Z,35.81
2018-05-06T19:19:31.363Z,36.70
2018-05-06T19:21:59.797Z,37.11
2018-05-06T19:24:28.039Z,37.39
2018-05-06T19:26:56.295Z,38.46
2018-05-06T19:29:24.555Z,39.07
2018-05-06T19:31:52.825Z,39.67
2018-05-06T19:34:21.183Z,40.61
2018-05-06T19:36:49.642Z,41.22
2018-05-06T19:39:18.071Z,40.89
2018-05-06T19:41:46.388Z,41.61
2018-05-06T19:44:14.642Z,41.40
2018-05-06T19:46:42.894Z,41.92
2018-05-06T19:49:11.176Z,42.31
2018-05-06T19:51:40.203Z,42.42
2018-05-06T19:54:08.519Z,43.36
2018-05-06T19:56:37.537Z,44.35
2018-05-06T19:59:05.852Z,44.39
2018-05-06T20:01:35.604Z,44.84
2018-05-06T20:04:04.004Z,44.40
2018-05-06T20:06:32.189Z,44.96
2018-05-06T20:09:00.471Z,45.41
2018-05-06T20:11:29.467Z,45.52
2018-05-06T20:13:58.532Z,45.82
2018-05-06T20:16:26.786Z,45.42
2018-05-06T20:18:55.036Z,45.73
2018-05-06T20:21:23.282Z,45.24
2018-05-06T20:23:51.604Z,46.46
2018-05-06T20:26:19.962Z,46.28
2018-05-06T20:28:49.033Z,45.90
2018-05-06T20:31:17.362Z,46.46
2018-05-06T20:33:45.571Z,47.05
2018-05-06T20:36:13.813Z,47.24
2018-05-06T20:38:42.152Z,47.36
2018-05-06T20:41:10.389Z,47.33
2018-05-06T20:43:38.684Z,47.14
2018-05-06T20:46:06.919Z,47.28
2018-05-06T20:48:35.222Z,47.70
2018-05-06T20:51:03.486Z,48.08
2018-05-06T20:53:31.743Z,48.01
2018-05-06T20:56:00.020Z,47.49
2018-05-06T20:58:28.294Z,47.13
2018-05-06T21:00:57.316Z,47.33
2018-05-06T21:03:25.598Z,46.81
2018-05-06T21:05:54.609Z,47.64
2018-05-06T21:08:22.903Z,48.22
2018-05-06T21:10:51.156Z,48.37
2018-05-06T21:13:19.420Z,48.70
2018-05-06T21:15:47.694Z,48.99
2018-05-06T21:18:15.959Z,49.60
2018-05-06T21:20:44.242Z,49.97
2018-05-06T21:23:12.527Z,50.41
2018-05-06T21:25:41.668Z,50.18
2018-05-06T21:28:09.914Z,50.82
2018-05-06T21:30:39.746Z,49.94
2018-05-06T21:33:07.993Z,51.04
2018-05-06T21:35:36.278Z,50.34
2018-05-06T21:38:04.532Z,50.24
2018-05-06T21:40:32.785Z,49.53
2018-05-06T21:43:01.797Z,48.25
2018-05-06T21:45:31.054Z,48.11
2018-05-06T21:48:00.027Z,47.21
2018-05-06T21:50:29.206Z,47.31
2018-05-06T21:52:57.530Z,47.13
2018-05-06T21:55:26.560Z,46.92
2018-05-06T21:57:55.055Z,46.64
2018-05-06T22:00:23.303Z,47.19
2018-05-06T22:02:52.306Z,46.67
2018-05-06T22:05:21.278Z,47.77
2018-05-06T22:07:49.502Z,47.44
2018-05-06T22:10:18.577Z,47.65
2018-05-06T22:12:46.931Z,48.36
2018-05-06T22:15:15.302Z,48.40
2018-05-06T22:17:44.365Z,48.45
2018-05-06T22:20:13.392Z,48.99
2018-05-06T22:22:41.618Z,49.50
2018-05-06T22:25:09.865Z,49.60
2018-05-06T22:27:38.095Z,50.34
2018-05-06T22:30:06.359Z,51.42
2018-05-06T22:32:34.603Z,52.16
2018-05-06T22:35:02.844Z,52.48
2018-05-06T22:37:31.843Z,53.03
2018-05-06T22:40:00.114Z,53.36
2018-05-06T22:42:28.333Z,53.05
2018-05-06T22:44:57.346Z,53.15
2018-05-06T22:47:26.358Z,53.03
2018-05-06T22:49:55.554Z,53.40
2018-05-06T22:52:25.300Z,53.55
2018-05-06T22:54:53.550Z,53.79
2018-05-06T22:57:21.794Z,53.52
2018-05-06T22:59:50.053Z,54.56
2018-05-06T23:02:19.160Z,54.98
2018-05-06T23:04:48.227Z,54.87
2018-05-06T23:07:16.414Z,55.45
2018-05-06T23:09:44.734Z,55.24
2018-05-06T23:12:13.852Z,55.24
2018-05-06T23:14:42.159Z,55.02
2018-05-06T23:17:10.435Z,55.28
2018-05-06T23:19:39.440Z,55.23
2018-05-06T23:22:08.539Z,55.14
2018-05-06T23:24:37.541Z,53.83
2018-05-06T23:27:05.830Z,53.19
2018-05-06T23:29:34.867Z,52.93
2018-05-06T23:32:03.139Z,52.72
2018-05-06T23:34:32.147Z,53.15
2018-05-06T23:37:01.165Z,53.17
2018-05-06T23:39:29.406Z,53.27
2018-05-06T23:41:57.659Z,53.15
2018-05-06T23:44:25.906Z,53.72
2018-05-06T23:46:54.990Z,53.87
2018-05-06T23:49:23.306Z,53.29
2018-05-06T23:51:52.414Z,52.98
2018-05-06T23:54:20.647Z,53.01
2018-05-06T23:56:48.913Z,53.78
2018-05-06T23:59:17.151Z,53.56
